sensor_id;sensor_type;location;lat;lon;timestamp;P1;durP1;ratioP1;P2;durP2;ratioP2
75937;SDS011;64615;32.062;34.834;2024-03-08T00:00:08;4.82;;;1.77;;
75937;SDS011;64615;32.062;34.834;2024-03-08T00:02:37;6.20;;;1.98;;
75937;SDS011;64615;32.062;34.834;2024-03-08T00:05:07;5.90;;;1.90;;
75937;SDS011;64615;32.062;34.834;2024-03-08T00:07:37;6.15;;;1.83;;
75937;SDS011;64615;32.062;34.834;2024-03-08T00:10:03;4.50;;;1.70;;
75937;SDS011;64615;32.062;34.834;2024-03-08T00:12:30;5.93;;;1.98;;
75937;SDS011;64615;32.062;34.834;2024-03-08T00:14:56;4.78;;;1.70;;
75937;SDS011;64615;32.062;34.834;2024-03-08T00:17:21;5.65;;;1.85;;
75937;SDS011;64615;32.062;34.834;2024-03-08T00:19:53;5.93;;;1.95;;
75937;SDS011;64615;32.062;34.834;2024-03-08T00:22:19;5.75;;;1.77;;
75937;SDS011;64615;32.062;34.834;2024-03-08T00:24:47;6.57;;;1.92;;
75937;SDS011;64615;32.062;34.834;2024-03-08T00:27:15;4.82;;;1.50;;
75937;SDS011;64615;32.062;34.834;2024-03-08T00:29:41;6.40;;;1.58;;
75937;SDS011;64615;32.062;34.834;2024-03-08T00:32:06;5.70;;;1.80;;
75937;SDS011;64615;32.062;34.834;2024-03-08T00:34:35;5.88;;;1.70;;
75937;SDS011;64615;32.062;34.834;2024-03-08T00:37:02;8.55;;;2.00;;
75937;SDS011;64615;32.062;34.834;2024-03-08T00:39:28;6.60;;;1.70;;
75937;SDS011;64615;32.062;34.834;2024-03-08T00:41:54;7.68;;;1.92;;
75937;SDS011;64615;32.062;34.834;2024-03-08T00:44:20;7.75;;;2.10;;
75937;SDS011;64615;32.062;34.834;2024-03-08T00:46:45;7.05;;;1.90;;
75937;SDS011;64615;32.062;34.834;2024-03-08T00:49:11;6.07;;;1.70;;
75937;SDS011;64615;32.062;34.834;2024-03-08T00:51:37;6.82;;;1.60;;
75937;SDS011;64615;32.062;34.834;2024-03-08T00:54:03;7.18;;;1.85;;
75937;SDS011;64615;32.062;34.834;2024-03-08T00:56:29;4.63;;;1.70;;
75937;SDS011;64615;32.062;34.834;2024-03-08T00:58:55;5.47;;;1.80;;
75937;SDS011;64615;32.062;34.834;2024-03-08T01:01:20;5.78;;;1.92;;
75937;SDS011;64615;32.062;34.834;2024-03-08T01:03:46;6.20;;;1.65;;
75937;SDS011;64615;32.062;34.834;2024-03-08T01:06:11;5.25;;;1.75;;
75937;SDS011;64615;32.062;34.834;2024-03-08T01:08:37;6.88;;;1.70;;
75937;SDS011;64615;32.062;34.834;2024-03-08T01:11:07;6.38;;;1.70;;
75937;SDS011;64615;32.062;34.834;2024-03-08T01:13:34;7.35;;;1.98;;
75937;SDS011;64615;32.062;34.834;2024-03-08T01:16:01;4.75;;;1.67;;
75937;SDS011;64615;32.062;34.834;2024-03-08T01:18:26;6.05;;;1.52;;
75937;SDS011;64615;32.062;34.834;2024-03-08T01:20:52;5.72;;;1.65;;
75937;SDS011;64615;32.062;34.834;2024-03-08T01:23:17;4.53;;;1.63;;
75937;SDS011;64615;32.062;34.834;2024-03-08T01:25:43;5.43;;;1.75;;
75937;SDS011;64615;32.062;34.834;2024-03-08T01:28:09;4.20;;;1.60;;
75937;SDS011;64615;32.062;34.834;2024-03-08T01:30:34;6.32;;;1.50;;
75937;SDS011;64615;32.062;34.834;2024-03-08T01:33:02;5.72;;;1.65;;
75937;SDS011;64615;32.062;34.834;2024-03-08T01:35:28;4.82;;;1.60;;
75937;SDS011;64615;32.062;34.834;2024-03-08T01:37:54;4.70;;;1.50;;
75937;SDS011;64615;32.062;34.834;2024-03-08T01:40:20;4.50;;;1.58;;
75937;SDS011;64615;32.062;34.834;2024-03-08T01:42:46;4.93;;;1.75;;
75937;SDS011;64615;32.062;34.834;2024-03-08T01:45:13;4.75;;;1.70;;
75937;SDS011;64615;32.062;34.834;2024-03-08T01:47:38;6.03;;;1.70;;
75937;SDS011;64615;32.062;34.834;2024-03-08T01:50:05;5.43;;;1.70;;
75937;SDS011;64615;32.062;34.834;2024-03-08T01:52:34;5.13;;;1.55;;
75937;SDS011;64615;32.062;34.834;2024-03-08T01:55:02;6.32;;;1.83;;
75937;SDS011;64615;32.062;34.834;2024-03-08T01:57:34;5.00;;;1.80;;
75937;SDS011;64615;32.062;34.834;2024-03-08T02:00:00;5.55;;;1.67;;
75937;SDS011;64615;32.062;34.834;2024-03-08T02:02:30;4.63;;;1.60;;
75937;SDS011;64615;32.062;34.834;2024-03-08T02:04:59;5.38;;;1.80;;
75937;SDS011;64615;32.062;34.834;2024-03-08T02:07:26;6.00;;;1.83;;
75937;SDS011;64615;32.062;34.834;2024-03-08T02:09:52;7.43;;;1.65;;
75937;SDS011;64615;32.062;34.834;2024-03-08T02:12:17;6.30;;;1.65;;
75937;SDS011;64615;32.062;34.834;2024-03-08T02:14:46;4.80;;;1.67;;
75937;SDS011;64615;32.062;34.834;2024-03-08T02:17:12;6.13;;;1.60;;
75937;SDS011;64615;32.062;34.834;2024-03-08T02:19:38;6.20;;;1.95;;
75937;SDS011;64615;32.062;34.834;2024-03-08T02:22:03;6.28;;;1.88;;
75937;SDS011;64615;32.062;34.834;2024-03-08T02:24:31;4.18;;;1.60;;
75937;SDS011;64615;32.062;34.834;2024-03-08T02:26:57;5.05;;;1.80;;
75937;SDS011;64615;32.062;34.834;2024-03-08T02:29:23;6.68;;;1.88;;
75937;SDS011;64615;32.062;34.834;2024-03-08T02:31:52;8.80;;;2.00;;
75937;SDS011;64615;32.062;34.834;2024-03-08T02:34:18;6.28;;;1.83;;
75937;SDS011;64615;32.062;34.834;2024-03-08T02:36:43;6.75;;;1.90;;
75937;SDS011;64615;32.062;34.834;2024-03-08T02:39:09;6.60;;;1.80;;
75937;SDS011;64615;32.062;34.834;2024-03-08T02:41:35;6.35;;;1.88;;
75937;SDS011;64615;32.062;34.834;2024-03-08T02:44:01;5.00;;;1.98;;
75937;SDS011;64615;32.062;34.834;2024-03-08T02:46:27;4.97;;;1.70;;
75937;SDS011;64615;32.062;34.834;2024-03-08T02:48:53;6.18;;;1.90;;
75937;SDS011;64615;32.062;34.834;2024-03-08T02:51:18;6.47;;;2.00;;
75937;SDS011;64615;32.062;34.834;2024-03-08T02:53:45;7.38;;;2.10;;
75937;SDS011;64615;32.062;34.834;2024-03-08T02:56:14;5.93;;;2.22;;
75937;SDS011;64615;32.062;34.834;2024-03-08T02:58:41;5.13;;;2.00;;
75937;SDS011;64615;32.062;34.834;2024-03-08T03:01:08;5.03;;;1.80;;
75937;SDS011;64615;32.062;34.834;2024-03-08T03:03:35;7.70;;;1.95;;
75937;SDS011;64615;32.062;34.834;2024-03-08T03:06:01;6.32;;;2.15;;
75937;SDS011;64615;32.062;34.834;2024-03-08T03:08:27;7.45;;;2.03;;
75937;SDS011;64615;32.062;34.834;2024-03-08T03:10:53;6.80;;;2.20;;
75937;SDS011;64615;32.062;34.834;2024-03-08T03:13:21;9.80;;;2.58;;
75937;SDS011;64615;32.062;34.834;2024-03-08T03:15:48;6.95;;;2.40;;
75937;SDS011;64615;32.062;34.834;2024-03-08T03:18:14;9.05;;;2.13;;
75937;SDS011;64615;32.062;34.834;2024-03-08T03:20:40;6.40;;;2.00;;
75937;SDS011;64615;32.062;34.834;2024-03-08T03:23:08;6.82;;;2.80;;
75937;SDS011;64615;32.062;34.834;2024-03-08T03:25:34;9.80;;;2.28;;
75937;SDS011;64615;32.062;34.834;2024-03-08T03:28:03;9.70;;;2.78;;
75937;SDS011;64615;32.062;34.834;2024-03-08T03:30:29;8.30;;;2.17;;
75937;SDS011;64615;32.062;34.834;2024-03-08T03:32:58;7.35;;;2.50;;
75937;SDS011;64615;32.062;34.834;2024-03-08T03:35:26;9.93;;;2.70;;
75937;SDS011;64615;32.062;34.834;2024-03-08T03:37:52;10.43;;;2.58;;
75937;SDS011;64615;32.062;34.834;2024-03-08T03:40:36;6.43;;;2.30;;
75937;SDS011;64615;32.062;34.834;2024-03-08T03:43:03;10.57;;;2.75;;
75937;SDS011;64615;32.062;34.834;2024-03-08T03:45:29;7.88;;;2.70;;
75937;SDS011;64615;32.062;34.834;2024-03-08T03:47:58;11.77;;;2.90;;
75937;SDS011;64615;32.062;34.834;2024-03-08T03:50:25;12.07;;;2.95;;
75937;SDS011;64615;32.062;34.834;2024-03-08T03:52:51;14.55;;;3.53;;
75937;SDS011;64615;32.062;34.834;2024-03-08T03:55:17;24.17;;;3.25;;
75937;SDS011;64615;32.062;34.834;2024-03-08T03:57:43;15.45;;;3.17;;
75937;SDS011;64615;32.062;34.834;2024-03-08T04:00:10;13.98;;;2.65;;
75937;SDS011;64615;32.062;34.834;2024-03-08T04:02:39;12.90;;;3.70;;
75937;SDS011;64615;32.062;34.834;2024-03-08T04:05:06;10.68;;;3.13;;
75937;SDS011;64615;32.062;34.834;2024-03-08T04:07:33;15.45;;;3.25;;
75937;SDS011;64615;32.062;34.834;2024-03-08T04:10:00;10.38;;;2.90;;
75937;SDS011;64615;32.062;34.834;2024-03-08T04:12:26;14.30;;;3.40;;
75937;SDS011;64615;32.062;34.834;2024-03-08T04:14:54;11.73;;;3.47;;
75937;SDS011;64615;32.062;34.834;2024-03-08T04:17:20;15.40;;;3.35;;
75937;SDS011;64615;32.062;34.834;2024-03-08T04:19:46;14.77;;;3.30;;
75937;SDS011;64615;32.062;34.834;2024-03-08T04:22:13;11.73;;;3.35;;
75937;SDS011;64615;32.062;34.834;2024-03-08T04:24:39;16.75;;;3.55;;
75937;SDS011;64615;32.062;34.834;2024-03-08T04:27:06;15.00;;;3.45;;
75937;SDS011;64615;32.062;34.834;2024-03-08T04:29:31;10.55;;;3.30;;
75937;SDS011;64615;32.062;34.834;2024-03-08T04:32:00;14.85;;;3.20;;
75937;SDS011;64615;32.062;34.834;2024-03-08T04:34:29;16.83;;;3.13;;
75937;SDS011;64615;32.062;34.834;2024-03-08T04:36:56;22.17;;;3.40;;
75937;SDS011;64615;32.062;34.834;2024-03-08T04:39:22;13.65;;;3.67;;
75937;SDS011;64615;32.062;34.834;2024-03-08T04:41:48;13.95;;;2.95;;
75937;SDS011;64615;32.062;34.834;2024-03-08T04:44:15;14.75;;;2.63;;
75937;SDS011;64615;32.062;34.834;2024-03-08T04:46:41;28.90;;;3.55;;
75937;SDS011;64615;32.062;34.834;2024-03-08T04:49:06;29.00;;;3.53;;
75937;SDS011;64615;32.062;34.834;2024-03-08T04:51:32;15.43;;;3.25;;
75937;SDS011;64615;32.062;34.834;2024-03-08T04:53:59;20.15;;;4.00;;
75937;SDS011;64615;32.062;34.834;2024-03-08T04:56:25;28.95;;;3.33;;
75937;SDS011;64615;32.062;34.834;2024-03-08T04:58:51;27.95;;;3.83;;
75937;SDS011;64615;32.062;34.834;2024-03-08T05:01:16;20.77;;;4.20;;
75937;SDS011;64615;32.062;34.834;2024-03-08T05:03:42;29.08;;;4.22;;
75937;SDS011;64615;32.062;34.834;2024-03-08T05:06:08;21.20;;;3.92;;
75937;SDS011;64615;32.062;34.834;2024-03-08T05:08:33;26.70;;;4.07;;
75937;SDS011;64615;32.062;34.834;2024-03-08T05:10:59;16.30;;;3.15;;
75937;SDS011;64615;32.062;34.834;2024-03-08T05:13:29;24.58;;;3.92;;
75937;SDS011;64615;32.062;34.834;2024-03-08T05:15:59;30.00;;;3.88;;
75937;SDS011;64615;32.062;34.834;2024-03-08T05:18:25;25.20;;;4.45;;
75937;SDS011;64615;32.062;34.834;2024-03-08T05:20:53;23.35;;;3.60;;
75937;SDS011;64615;32.062;34.834;2024-03-08T05:23:19;17.55;;;3.55;;
75937;SDS011;64615;32.062;34.834;2024-03-08T05:25:45;15.27;;;3.40;;
75937;SDS011;64615;32.062;34.834;2024-03-08T05:28:14;15.93;;;3.92;;
75937;SDS011;64615;32.062;34.834;2024-03-08T05:30:39;22.83;;;3.70;;
75937;SDS011;64615;32.062;34.834;2024-03-08T05:33:06;17.70;;;3.50;;
75937;SDS011;64615;32.062;34.834;2024-03-08T05:35:35;20.75;;;4.25;;
75937;SDS011;64615;32.062;34.834;2024-03-08T05:38:01;15.35;;;3.90;;
75937;SDS011;64615;32.062;34.834;2024-03-08T05:40:27;29.27;;;4.00;;
75937;SDS011;64615;32.062;34.834;2024-03-08T05:42:57;26.63;;;4.20;;
75937;SDS011;64615;32.062;34.834;2024-03-08T05:45:24;16.70;;;3.80;;
75937;SDS011;64615;32.062;34.834;2024-03-08T05:47:50;16.38;;;3.72;;
75937;SDS011;64615;32.062;34.834;2024-03-08T05:50:17;19.45;;;3.53;;
75937;SDS011;64615;32.062;34.834;2024-03-08T05:52:43;9.98;;;3.15;;
75937;SDS011;64615;32.062;34.834;2024-03-08T05:55:09;13.23;;;3.70;;
75937;SDS011;64615;32.062;34.834;2024-03-08T05:57:35;15.70;;;3.28;;
75937;SDS011;64615;32.062;34.834;2024-03-08T06:00:05;18.48;;;4.00;;
75937;SDS011;64615;32.062;34.834;2024-03-08T06:02:31;19.25;;;3.67;;
75937;SDS011;64615;32.062;34.834;2024-03-08T06:04:56;16.25;;;3.80;;
75937;SDS011;64615;32.062;34.834;2024-03-08T06:07:22;22.75;;;3.47;;
75937;SDS011;64615;32.062;34.834;2024-03-08T06:09:48;12.50;;;3.05;;
75937;SDS011;64615;32.062;34.834;2024-03-08T06:12:14;11.48;;;2.53;;
75937;SDS011;64615;32.062;34.834;2024-03-08T06:14:44;13.27;;;2.83;;
75937;SDS011;64615;32.062;34.834;2024-03-08T06:17:10;16.20;;;3.20;;
75937;SDS011;64615;32.062;34.834;2024-03-08T06:19:36;16.42;;;2.88;;
75937;SDS011;64615;32.062;34.834;2024-03-08T06:22:02;13.30;;;2.78;;
75937;SDS011;64615;32.062;34.834;2024-03-08T06:24:31;13.95;;;2.70;;
75937;SDS011;64615;32.062;34.834;2024-03-08T06:26:57;14.02;;;2.90;;
75937;SDS011;64615;32.062;34.834;2024-03-08T06:29:23;13.23;;;3.10;;
75937;SDS011;64615;32.062;34.834;2024-03-08T06:31:48;12.30;;;2.75;;
75937;SDS011;64615;32.062;34.834;2024-03-08T06:34:15;13.20;;;2.60;;
75937;SDS011;64615;32.062;34.834;2024-03-08T06:36:40;11.70;;;2.47;;
75937;SDS011;64615;32.062;34.834;2024-03-08T06:39:06;12.00;;;2.45;;
75937;SDS011;64615;32.062;34.834;2024-03-08T06:41:37;12.93;;;3.10;;
75937;SDS011;64615;32.062;34.834;2024-03-08T06:44:03;12.93;;;2.53;;
75937;SDS011;64615;32.062;34.834;2024-03-08T06:46:28;11.68;;;2.80;;
75937;SDS011;64615;32.062;34.834;2024-03-08T06:48:54;13.60;;;3.00;;
75937;SDS011;64615;32.062;34.834;2024-03-08T06:51:20;13.48;;;2.92;;
75937;SDS011;64615;32.062;34.834;2024-03-08T06:53:45;8.75;;;2.30;;
75937;SDS011;64615;32.062;34.834;2024-03-08T06:56:11;15.32;;;2.95;;
75937;SDS011;64615;32.062;34.834;2024-03-08T06:58:37;22.50;;;3.33;;
75937;SDS011;64615;32.062;34.834;2024-03-08T07:01:02;15.07;;;2.88;;
75937;SDS011;64615;32.062;34.834;2024-03-08T07:03:32;15.55;;;3.00;;
75937;SDS011;64615;32.062;34.834;2024-03-08T07:05:58;13.95;;;2.88;;
75937;SDS011;64615;32.062;34.834;2024-03-08T07:08:24;16.00;;;2.95;;
75937;SDS011;64615;32.062;34.834;2024-03-08T07:10:52;12.18;;;2.80;;
75937;SDS011;64615;32.062;34.834;2024-03-08T07:13:18;17.42;;;3.00;;
75937;SDS011;64615;32.062;34.834;2024-03-08T07:15:43;12.60;;;2.92;;
75937;SDS011;64615;32.062;34.834;2024-03-08T07:18:10;13.55;;;2.60;;
75937;SDS011;64615;32.062;34.834;2024-03-08T07:20:39;13.85;;;2.55;;
75937;SDS011;64615;32.062;34.834;2024-03-08T07:23:05;10.18;;;2.13;;
75937;SDS011;64615;32.062;34.834;2024-03-08T07:25:31;11.20;;;2.60;;
75937;SDS011;64615;32.062;34.834;2024-03-08T07:27:56;14.10;;;2.58;;
75937;SDS011;64615;32.062;34.834;2024-03-08T07:30:23;11.57;;;2.53;;
75937;SDS011;64615;32.062;34.834;2024-03-08T07:33:08;11.98;;;2.10;;
75937;SDS011;64615;32.062;34.834;2024-03-08T07:35:40;9.00;;;2.00;;
75937;SDS011;64615;32.062;34.834;2024-03-08T07:38:07;7.05;;;1.50;;
75937;SDS011;64615;32.062;34.834;2024-03-08T07:40:38;9.35;;;1.50;;
75937;SDS011;64615;32.062;34.834;2024-03-08T07:43:08;11.80;;;1.83;;
75937;SDS011;64615;32.062;34.834;2024-03-08T07:45:35;12.35;;;1.90;;
75937;SDS011;64615;32.062;34.834;2024-03-08T07:48:02;5.43;;;1.77;;
75937;SDS011;64615;32.062;34.834;2024-03-08T07:50:28;13.07;;;2.30;;
75937;SDS011;64615;32.062;34.834;2024-03-08T07:52:54;10.32;;;2.03;;
75937;SDS011;64615;32.062;34.834;2024-03-08T07:55:20;6.20;;;1.80;;
75937;SDS011;64615;32.062;34.834;2024-03-08T07:57:49;9.48;;;1.70;;
75937;SDS011;64615;32.062;34.834;2024-03-08T08:00:15;8.80;;;1.98;;
75937;SDS011;64615;32.062;34.834;2024-03-08T08:05:10;7.68;;;2.00;;
75937;SDS011;64615;32.062;34.834;2024-03-08T08:07:36;9.40;;;2.00;;
75937;SDS011;64615;32.062;34.834;2024-03-08T08:10:02;20.33;;;2.30;;
75937;SDS011;64615;32.062;34.834;2024-03-08T08:12:28;7.38;;;2.38;;
75937;SDS011;64615;32.062;34.834;2024-03-08T08:14:54;7.00;;;2.00;;
75937;SDS011;64615;32.062;34.834;2024-03-08T08:17:20;9.48;;;1.80;;
75937;SDS011;64615;32.062;34.834;2024-03-08T08:19:45;8.02;;;1.75;;
75937;SDS011;64615;32.062;34.834;2024-03-08T08:22:11;6.47;;;2.20;;
75937;SDS011;64615;32.062;34.834;2024-03-08T08:24:37;5.68;;;2.20;;
75937;SDS011;64615;32.062;34.834;2024-03-08T08:27:03;7.82;;;1.95;;
75937;SDS011;64615;32.062;34.834;2024-03-08T08:29:29;8.70;;;2.20;;
75937;SDS011;64615;32.062;34.834;2024-03-08T08:31:57;10.93;;;2.42;;
75937;SDS011;64615;32.062;34.834;2024-03-08T08:34:24;10.27;;;2.17;;
75937;SDS011;64615;32.062;34.834;2024-03-08T08:36:51;10.23;;;2.70;;
75937;SDS011;64615;32.062;34.834;2024-03-08T08:39:18;9.85;;;2.50;;
75937;SDS011;64615;32.062;34.834;2024-03-08T08:41:44;13.18;;;2.67;;
75937;SDS011;64615;32.062;34.834;2024-03-08T08:44:09;10.43;;;2.72;;
75937;SDS011;64615;32.062;34.834;2024-03-08T08:46:37;9.98;;;2.90;;
75937;SDS011;64615;32.062;34.834;2024-03-08T08:49:03;7.63;;;2.85;;
75937;SDS011;64615;32.062;34.834;2024-03-08T08:51:31;7.90;;;2.38;;
75937;SDS011;64615;32.062;34.834;2024-03-08T08:53:58;8.75;;;2.22;;
75937;SDS011;64615;32.062;34.834;2024-03-08T08:56:24;9.60;;;2.35;;
75937;SDS011;64615;32.062;34.834;2024-03-08T08:58:51;7.38;;;2.15;;
75937;SDS011;64615;32.062;34.834;2024-03-08T09:01:18;12.18;;;2.70;;
75937;SDS011;64615;32.062;34.834;2024-03-08T09:03:44;10.75;;;2.42;;
75937;SDS011;64615;32.062;34.834;2024-03-08T09:06:12;7.15;;;2.80;;
75937;SDS011;64615;32.062;34.834;2024-03-08T09:08:41;7.60;;;2.92;;
75937;SDS011;64615;32.062;34.834;2024-03-08T09:11:09;12.90;;;6.00;;
75937;SDS011;64615;32.062;34.834;2024-03-08T09:13:35;11.32;;;5.28;;
75937;SDS011;64615;32.062;34.834;2024-03-08T09:16:02;10.98;;;4.40;;
75937;SDS011;64615;32.062;34.834;2024-03-08T09:18:30;10.40;;;3.90;;
75937;SDS011;64615;32.062;34.834;2024-03-08T09:20:57;8.20;;;3.13;;
75937;SDS011;64615;32.062;34.834;2024-03-08T09:23:24;6.78;;;2.75;;
75937;SDS011;64615;32.062;34.834;2024-03-08T09:25:55;6.88;;;2.90;;
75937;SDS011;64615;32.062;34.834;2024-03-08T09:28:22;8.25;;;3.00;;
75937;SDS011;64615;32.062;34.834;2024-03-08T09:30:48;7.95;;;2.78;;
75937;SDS011;64615;32.062;34.834;2024-03-08T09:33:14;6.90;;;2.60;;
75937;SDS011;64615;32.062;34.834;2024-03-08T09:35:44;7.00;;;2.30;;
75937;SDS011;64615;32.062;34.834;2024-03-08T09:38:12;10.32;;;2.47;;
75937;SDS011;64615;32.062;34.834;2024-03-08T09:40:40;5.90;;;2.15;;
75937;SDS011;64615;32.062;34.834;2024-03-08T09:43:06;6.68;;;2.03;;
75937;SDS011;64615;32.062;34.834;2024-03-08T09:45:35;8.55;;;2.33;;
75937;SDS011;64615;32.062;34.834;2024-03-08T09:48:06;5.72;;;1.98;;
75937;SDS011;64615;32.062;34.834;2024-03-08T09:50:37;8.80;;;2.20;;
75937;SDS011;64615;32.062;34.834;2024-03-08T09:53:04;6.72;;;2.10;;
75937;SDS011;64615;32.062;34.834;2024-03-08T09:55:35;7.25;;;2.10;;
75937;SDS011;64615;32.062;34.834;2024-03-08T09:58:09;6.93;;;2.42;;
75937;SDS011;64615;32.062;34.834;2024-03-08T10:00:45;7.20;;;2.28;;
75937;SDS011;64615;32.062;34.834;2024-03-08T10:03:11;8.50;;;2.10;;
75937;SDS011;64615;32.062;34.834;2024-03-08T10:08:06;9.80;;;2.17;;
75937;SDS011;64615;32.062;34.834;2024-03-08T10:10:35;7.55;;;1.98;;
75937;SDS011;64615;32.062;34.834;2024-03-08T10:13:01;10.05;;;2.10;;
75937;SDS011;64615;32.062;34.834;2024-03-08T10:15:30;12.98;;;2.50;;
75937;SDS011;64615;32.062;34.834;2024-03-08T10:17:58;10.00;;;1.92;;
75937;SDS011;64615;32.062;34.834;2024-03-08T10:20:24;9.82;;;1.70;;
75937;SDS011;64615;32.062;34.834;2024-03-08T10:22:51;8.35;;;1.88;;
75937;SDS011;64615;32.062;34.834;2024-03-08T10:25:19;8.60;;;2.00;;
75937;SDS011;64615;32.062;34.834;2024-03-08T10:27:45;8.18;;;2.10;;
75937;SDS011;64615;32.062;34.834;2024-03-08T10:30:14;10.52;;;2.25;;
75937;SDS011;64615;32.062;34.834;2024-03-08T10:32:45;10.75;;;2.17;;
75937;SDS011;64615;32.062;34.834;2024-03-08T10:35:11;11.27;;;2.20;;
75937;SDS011;64615;32.062;34.834;2024-03-08T10:37:47;5.80;;;1.98;;
75937;SDS011;64615;32.062;34.834;2024-03-08T10:40:28;7.43;;;1.95;;
75937;SDS011;64615;32.062;34.834;2024-03-08T10:42:57;8.55;;;1.98;;
75937;SDS011;64615;32.062;34.834;2024-03-08T10:48:28;6.50;;;2.10;;
75937;SDS011;64615;32.062;34.834;2024-03-08T10:51:04;6.80;;;2.00;;
75937;SDS011;64615;32.062;34.834;2024-03-08T10:53:30;19.08;;;2.15;;
75937;SDS011;64615;32.062;34.834;2024-03-08T10:55:56;26.27;;;2.72;;
75937;SDS011;64615;32.062;34.834;2024-03-08T10:58:24;21.58;;;2.85;;
75937;SDS011;64615;32.062;34.834;2024-03-08T11:00:52;54.38;;;4.18;;
75937;SDS011;64615;32.062;34.834;2024-03-08T11:08:48;30.33;;;3.65;;
75937;SDS011;64615;32.062;34.834;2024-03-08T11:11:30;38.70;;;3.38;;
75937;SDS011;64615;32.062;34.834;2024-03-08T11:13:57;19.23;;;3.08;;
75937;SDS011;64615;32.062;34.834;2024-03-08T11:19:05;38.45;;;3.38;;
75937;SDS011;64615;32.062;34.834;2024-03-08T11:21:56;28.38;;;3.08;;
75937;SDS011;64615;32.062;34.834;2024-03-08T11:24:26;27.00;;;3.67;;
75937;SDS011;64615;32.062;34.834;2024-03-08T11:26:56;21.48;;;3.88;;
75937;SDS011;64615;32.062;34.834;2024-03-08T11:32:03;10.18;;;1.98;;
75937;SDS011;64615;32.062;34.834;2024-03-08T11:34:31;19.17;;;2.03;;
75937;SDS011;64615;32.062;34.834;2024-03-08T11:36:58;14.55;;;3.47;;
75937;SDS011;64615;32.062;34.834;2024-03-08T11:39:25;12.55;;;2.65;;
75937;SDS011;64615;32.062;34.834;2024-03-08T11:41:51;11.20;;;2.47;;
75937;SDS011;64615;32.062;34.834;2024-03-08T11:44:17;11.00;;;2.40;;
75937;SDS011;64615;32.062;34.834;2024-03-08T11:46:43;10.32;;;2.10;;
75937;SDS011;64615;32.062;34.834;2024-03-08T11:49:15;10.18;;;1.98;;
75937;SDS011;64615;32.062;34.834;2024-03-08T11:51:41;10.60;;;2.05;;
75937;SDS011;64615;32.062;34.834;2024-03-08T11:54:11;12.63;;;2.33;;
75937;SDS011;64615;32.062;34.834;2024-03-08T11:56:38;8.43;;;2.20;;
75937;SDS011;64615;32.062;34.834;2024-03-08T11:59:03;12.65;;;2.60;;
75937;SDS011;64615;32.062;34.834;2024-03-08T12:01:30;10.30;;;1.80;;
75937;SDS011;64615;32.062;34.834;2024-03-08T12:03:56;10.95;;;1.98;;
75937;SDS011;64615;32.062;34.834;2024-03-08T12:06:24;8.70;;;2.00;;
75937;SDS011;64615;32.062;34.834;2024-03-08T12:08:50;8.73;;;1.70;;
75937;SDS011;64615;32.062;34.834;2024-03-08T12:11:19;9.95;;;1.88;;
75937;SDS011;64615;32.062;34.834;2024-03-08T12:13:49;9.68;;;2.33;;
75937;SDS011;64615;32.062;34.834;2024-03-08T12:16:19;11.60;;;1.90;;
75937;SDS011;64615;32.062;34.834;2024-03-08T12:18:46;11.20;;;2.00;;
75937;SDS011;64615;32.062;34.834;2024-03-08T12:21:13;7.22;;;1.60;;
75937;SDS011;64615;32.062;34.834;2024-03-08T12:23:42;11.55;;;1.90;;
75937;SDS011;64615;32.062;34.834;2024-03-08T12:26:13;11.48;;;1.67;;
75937;SDS011;64615;32.062;34.834;2024-03-08T12:28:41;6.00;;;1.80;;
75937;SDS011;64615;32.062;34.834;2024-03-08T12:31:09;9.07;;;1.95;;
75937;SDS011;64615;32.062;34.834;2024-03-08T12:33:47;7.30;;;2.08;;
75937;SDS011;64615;32.062;34.834;2024-03-08T12:36:14;7.65;;;1.85;;
75937;SDS011;64615;32.062;34.834;2024-03-08T12:38:44;6.35;;;1.60;;
75937;SDS011;64615;32.062;34.834;2024-03-08T12:41:14;6.18;;;1.50;;
75937;SDS011;64615;32.062;34.834;2024-03-08T12:43:40;6.72;;;1.52;;
75937;SDS011;64615;32.062;34.834;2024-03-08T12:46:06;8.52;;;1.80;;
75937;SDS011;64615;32.062;34.834;2024-03-08T12:48:34;8.80;;;1.65;;
75937;SDS011;64615;32.062;34.834;2024-03-08T12:51:08;6.45;;;1.60;;
75937;SDS011;64615;32.062;34.834;2024-03-08T12:53:34;8.10;;;1.67;;
75937;SDS011;64615;32.062;34.834;2024-03-08T12:56:00;6.45;;;1.55;;
75937;SDS011;64615;32.062;34.834;2024-03-08T12:58:26;5.03;;;1.52;;
75937;SDS011;64615;32.062;34.834;2024-03-08T13:00:52;4.63;;;1.33;;
75937;SDS011;64615;32.062;34.834;2024-03-08T13:03:17;7.10;;;1.38;;
75937;SDS011;64615;32.062;34.834;2024-03-08T13:05:43;11.48;;;1.63;;
75937;SDS011;64615;32.062;34.834;2024-03-08T13:08:09;6.65;;;1.60;;
75937;SDS011;64615;32.062;34.834;2024-03-08T13:10:41;6.82;;;1.40;;
75937;SDS011;64615;32.062;34.834;2024-03-08T13:13:09;5.53;;;1.35;;
75937;SDS011;64615;32.062;34.834;2024-03-08T13:15:35;4.38;;;1.42;;
75937;SDS011;64615;32.062;34.834;2024-03-08T13:18:01;6.00;;;1.40;;
75937;SDS011;64615;32.062;34.834;2024-03-08T13:20:26;8.05;;;1.70;;
75937;SDS011;64615;32.062;34.834;2024-03-08T13:22:53;7.80;;;1.63;;
75937;SDS011;64615;32.062;34.834;2024-03-08T13:25:20;7.38;;;1.42;;
75937;SDS011;64615;32.062;34.834;2024-03-08T13:27:46;6.88;;;1.48;;
75937;SDS011;64615;32.062;34.834;2024-03-08T13:30:12;6.40;;;1.50;;
75937;SDS011;64615;32.062;34.834;2024-03-08T13:32:40;6.60;;;1.50;;
75937;SDS011;64615;32.062;34.834;2024-03-08T13:35:08;6.75;;;1.42;;
75937;SDS011;64615;32.062;34.834;2024-03-08T13:37:40;9.77;;;1.75;;
75937;SDS011;64615;32.062;34.834;2024-03-08T13:40:06;8.50;;;1.70;;
75937;SDS011;64615;32.062;34.834;2024-03-08T13:42:38;17.40;;;1.88;;
75937;SDS011;64615;32.062;34.834;2024-03-08T13:45:08;9.20;;;1.67;;
75937;SDS011;64615;32.062;34.834;2024-03-08T13:47:40;11.88;;;1.83;;
75937;SDS011;64615;32.062;34.834;2024-03-08T13:50:06;14.43;;;2.33;;
75937;SDS011;64615;32.062;34.834;2024-03-08T13:52:37;16.55;;;2.45;;
75937;SDS011;64615;32.062;34.834;2024-03-08T13:55:03;13.00;;;1.90;;
75937;SDS011;64615;32.062;34.834;2024-03-08T13:57:30;20.77;;;2.35;;
75937;SDS011;64615;32.062;34.834;2024-03-08T13:59:57;16.25;;;2.42;;
75937;SDS011;64615;32.062;34.834;2024-03-08T14:02:23;14.02;;;1.95;;
75937;SDS011;64615;32.062;34.834;2024-03-08T14:04:53;19.88;;;2.72;;
75937;SDS011;64615;32.062;34.834;2024-03-08T14:07:20;18.00;;;2.05;;
75937;SDS011;64615;32.062;34.834;2024-03-08T14:09:46;21.58;;;2.30;;
75937;SDS011;64615;32.062;34.834;2024-03-08T14:12:12;36.95;;;3.28;;
75937;SDS011;64615;32.062;34.834;2024-03-08T14:14:40;14.10;;;1.80;;
75937;SDS011;64615;32.062;34.834;2024-03-08T14:17:09;18.45;;;2.58;;
75937;SDS011;64615;32.062;34.834;2024-03-08T14:19:36;18.23;;;2.33;;
75937;SDS011;64615;32.062;34.834;2024-03-08T14:22:04;10.63;;;1.92;;
75937;SDS011;64615;32.062;34.834;2024-03-08T14:24:30;21.92;;;2.35;;
75937;SDS011;64615;32.062;34.834;2024-03-08T14:26:56;31.08;;;2.92;;
75937;SDS011;64615;32.062;34.834;2024-03-08T14:29:24;24.30;;;2.28;;
75937;SDS011;64615;32.062;34.834;2024-03-08T14:31:54;15.70;;;1.75;;
75937;SDS011;64615;32.062;34.834;2024-03-08T14:34:24;8.63;;;1.92;;
75937;SDS011;64615;32.062;34.834;2024-03-08T14:36:54;15.65;;;1.70;;
75937;SDS011;64615;32.062;34.834;2024-03-08T14:39:21;19.77;;;2.38;;
75937;SDS011;64615;32.062;34.834;2024-03-08T14:41:49;17.35;;;1.85;;
75937;SDS011;64615;32.062;34.834;2024-03-08T14:44:18;19.00;;;2.30;;
75937;SDS011;64615;32.062;34.834;2024-03-08T14:46:45;12.07;;;1.92;;